»·PEaware :: DFGCW KENV-KBAM

DFGCW :: KENV-KBAM

FLIGHT INFORMATION

Flight Status: Arrived
Operator: Unknown
More flights by this operator :: More flights under this callsign
Pilot: Klaus A. (15485)
Aircraft: PILATUS PC-12 EAGLE
(PC12)
More flights by this aircraft type
Origin: KENV Wendover
United States
Destination: KBAM Battle Mountain
United States
More flights between these airports :: More routes between these airports
Route: ENV1 BVL BVL V32 BQU V32 BAM
File this flight plan on PilotEdge
Remarks: Dep. via ODP RWY 12
Altitude:
(Current/Filed)
16,000ft
Speed:
(Current/Filed)
230kts
Departed: 20-Apr-19 09:26 AM
Arrived: 20-Apr-19 10:17 AM
Distance/Time
Traveled:
130nm/0:51
Distance/Time
To Go:
Arrived

Flight Plot

Page will automatically refresh every two minutes.

Flight plan parsing failed; only flown route is shown


Map Options




Map Legend


Flown Route
Filed Route
Departure Airport
Arrival Airport
Navaid (VOR, NDB)
Fix

Horizontal Profiles

Position Reports

Time Latitude Longitude Heading Altitude Ground
Speed
20-Apr-19 09:04 40.727747 -114.038587 0 4240ft 0kts
20-Apr-19 09:05 40.727747 -114.038587 179 4240ft 0kts
20-Apr-19 09:06 40.727747 -114.038587 179 4240ft 0kts
20-Apr-19 09:07 40.727747 -114.038587 179 4240ft 0kts
20-Apr-19 09:08 40.727747 -114.038587 179 4240ft 0kts
20-Apr-19 09:09 40.727747 -114.038587 179 4240ft 0kts
20-Apr-19 09:10 40.727747 -114.038587 179 4240ft 0kts
20-Apr-19 09:11 40.727746 -114.038588 179 4240ft 0kts
20-Apr-19 09:12 40.727746 -114.038588 179 4240ft 0kts
20-Apr-19 09:13 40.727746 -114.038588 179 4240ft 0kts
20-Apr-19 09:14 40.727746 -114.038588 179 4240ft 0kts
20-Apr-19 09:15 40.727746 -114.038588 179 4240ft 0kts
20-Apr-19 09:16 40.727746 -114.038588 179 4240ft 0kts
20-Apr-19 09:17 40.727746 -114.038588 179 4240ft 0kts
20-Apr-19 09:18 40.727746 -114.038588 179 4240ft 0kts
20-Apr-19 09:19 40.726735 -114.040964 274 4241ft 17kts
20-Apr-19 09:20 40.726678 -114.042087 238 4241ft 0kts
20-Apr-19 09:21 40.726678 -114.042087 238 4241ft 0kts
20-Apr-19 09:22 40.726678 -114.042087 238 4241ft 0kts
20-Apr-19 09:23 40.726678 -114.042087 238 4241ft 0kts
20-Apr-19 09:24 40.726678 -114.042087 238 4241ft 0kts
20-Apr-19 09:25 40.723439 -114.039386 133 4241ft 84kts
20-Apr-19 09:26 40.704418 -114.002255 79 5577ft 156kts
20-Apr-19 09:27 40.716056 -113.951362 91 7841ft 149kts
20-Apr-19 09:28 40.720367 -113.892046 80 9511ft 172kts
20-Apr-19 09:29 40.723007 -113.830122 94 11309ft 171kts
20-Apr-19 09:30 40.724335 -113.765181 91 12807ft 182kts
20-Apr-19 09:31 40.757677 -113.743203 299 14424ft 159kts
20-Apr-19 09:32 40.751095 -113.794217 252 15736ft 150kts
20-Apr-19 09:33 40.739170 -113.852205 253 16118ft 200kts
20-Apr-19 09:34 40.731012 -113.932183 267 15984ft 239kts
20-Apr-19 09:35 40.732680 -114.020977 266 15986ft 247kts
20-Apr-19 09:36 40.734044 -114.112492 267 15985ft 251kts
20-Apr-19 09:37 40.735855 -114.205213 267 15984ft 253kts
20-Apr-19 09:38 40.737716 -114.297759 267 15984ft 253kts
20-Apr-19 09:39 40.739473 -114.390482 267 15984ft 253kts
20-Apr-19 09:40 40.741174 -114.482911 267 15984ft 252kts
20-Apr-19 09:41 40.742802 -114.575444 267 15984ft 252kts
20-Apr-19 09:42 40.744237 -114.668173 266 15986ft 252kts
20-Apr-19 09:43 40.745385 -114.760800 266 15986ft 252kts
20-Apr-19 09:44 40.746723 -114.853436 266 15985ft 252kts
20-Apr-19 09:45 40.748053 -114.945476 266 15985ft 251kts
20-Apr-19 09:46 40.749599 -115.034128 266 16077ft 249kts
20-Apr-19 09:47 40.751135 -115.126255 266 16076ft 251kts
20-Apr-19 09:48 40.752629 -115.218235 266 16076ft 251kts
20-Apr-19 09:49 40.754035 -115.310431 266 16075ft 250kts
20-Apr-19 09:50 40.755355 -115.402121 266 16075ft 249kts
20-Apr-19 09:51 40.756603 -115.493513 266 16075ft 249kts
20-Apr-19 09:52 40.757256 -115.584841 260 16072ft 247kts
20-Apr-19 09:53 40.747711 -115.674094 256 16076ft 245kts
20-Apr-19 09:54 40.736438 -115.763375 256 16076ft 247kts
20-Apr-19 09:55 40.725063 -115.853256 256 16077ft 248kts
20-Apr-19 09:56 40.713645 -115.943248 257 16076ft 249kts
20-Apr-19 09:57 40.702548 -116.033293 257 16076ft 249kts
20-Apr-19 09:58 40.691475 -116.123416 257 16076ft 249kts
20-Apr-19 09:59 40.680418 -116.213635 257 16075ft 249kts
20-Apr-19 10:00 40.720039 -116.265498 23 15792ft 259kts
20-Apr-19 10:01 40.724265 -116.186814 125 14493ft 232kts
20-Apr-19 10:02 40.690591 -116.208588 273 13243ft 193kts
20-Apr-19 10:03 40.688019 -116.278248 250 12097ft 185kts
20-Apr-19 10:04 40.667232 -116.342441 261 11933ft 200kts
20-Apr-19 10:05 40.683930 -116.415016 286 10886ft 201kts
20-Apr-19 10:06 40.701621 -116.482309 286 9868ft 190kts
20-Apr-19 10:07 40.718711 -116.547438 286 8857ft 186kts
20-Apr-19 10:08 40.733365 -116.603563 284 8495ft 142kts
20-Apr-19 10:09 40.738571 -116.653036 255 8172ft 146kts
20-Apr-19 10:10 40.716593 -116.698445 227 7402ft 153kts
20-Apr-19 10:11 40.689066 -116.740544 227 6783ft 142kts
20-Apr-19 10:12 40.664384 -116.778137 227 6196ft 129kts
20-Apr-19 10:13 40.643690 -116.809252 230 5672ft 109kts
20-Apr-19 10:14 40.624282 -116.838766 231 5081ft 97kts
20-Apr-19 10:15 40.607640 -116.863861 235 4620ft 90kts
20-Apr-19 10:16 40.601437 -116.875807 354 4538ft 0kts
20-Apr-19 10:17 40.601523 -116.875797 11 4538ft 0kts
20-Apr-19 10:18 40.603556 -116.875100 15 4537ft 20kts
20-Apr-19 10:19 40.606937 -116.873031 67 4538ft 10kts
20-Apr-19 10:20 40.607130 -116.873516 256 4537ft 0kts
20-Apr-19 10:21 40.607130 -116.873516 256 4537ft 0kts
20-Apr-19 10:22 40.607130 -116.873516 256 4537ft 0kts

Navigation Log

Ident Type
Flight plan parsing failed, navigation log unavailable